sensor_id;sensor_type;location;lat;lon;timestamp;temperature;humidity
15574;DHT22;7888;46.748;8.102;2022-12-29T00:00:01;6.10;54.60
15574;DHT22;7888;46.748;8.102;2022-12-29T00:02:28;6.10;54.60
15574;DHT22;7888;46.748;8.102;2022-12-29T00:04:54;6.10;54.60
15574;DHT22;7888;46.748;8.102;2022-12-29T00:07:20;6.00;54.60
15574;DHT22;7888;46.748;8.102;2022-12-29T00:09:46;6.00;54.60
15574;DHT22;7888;46.748;8.102;2022-12-29T00:12:11;6.00;54.70
15574;DHT22;7888;46.748;8.102;2022-12-29T00:14:37;6.00;54.70
15574;DHT22;7888;46.748;8.102;2022-12-29T00:17:21;6.00;54.70
15574;DHT22;7888;46.748;8.102;2022-12-29T00:19:47;6.00;54.70
15574;DHT22;7888;46.748;8.102;2022-12-29T00:22:31;6.00;54.70
15574;DHT22;7888;46.748;8.102;2022-12-29T00:25:16;5.90;54.70
15574;DHT22;7888;46.748;8.102;2022-12-29T00:28:00;5.90;54.70
15574;DHT22;7888;46.748;8.102;2022-12-29T00:30:44;5.90;54.70
15574;DHT22;7888;46.748;8.102;2022-12-29T00:33:30;5.90;54.70
15574;DHT22;7888;46.748;8.102;2022-12-29T00:39:01;5.90;54.60
15574;DHT22;7888;46.748;8.102;2022-12-29T00:41:48;5.80;54.60
15574;DHT22;7888;46.748;8.102;2022-12-29T00:44:32;5.90;54.70
15574;DHT22;7888;46.748;8.102;2022-12-29T00:46:58;5.80;54.60
15574;DHT22;7888;46.748;8.102;2022-12-29T00:49:28;5.80;54.60
15574;DHT22;7888;46.748;8.102;2022-12-29T00:52:03;5.80;54.60
15574;DHT22;7888;46.748;8.102;2022-12-29T00:54:33;5.80;54.60
15574;DHT22;7888;46.748;8.102;2022-12-29T00:57:01;5.80;54.50
15574;DHT22;7888;46.748;8.102;2022-12-29T00:59:28;5.80;54.60
15574;DHT22;7888;46.748;8.102;2022-12-29T01:01:55;5.80;54.60
15574;DHT22;7888;46.748;8.102;2022-12-29T01:04:22;5.90;54.70
15574;DHT22;7888;46.748;8.102;2022-12-29T01:06:49;5.90;54.70
15574;DHT22;7888;46.748;8.102;2022-12-29T01:09:16;5.90;54.70
15574;DHT22;7888;46.748;8.102;2022-12-29T01:12:02;5.90;54.60
15574;DHT22;7888;46.748;8.102;2022-12-29T01:14:29;5.90;54.60
15574;DHT22;7888;46.748;8.102;2022-12-29T01:16:55;5.90;54.50
15574;DHT22;7888;46.748;8.102;2022-12-29T01:19:22;5.90;54.50
15574;DHT22;7888;46.748;8.102;2022-12-29T01:21:48;5.90;54.70
15574;DHT22;7888;46.748;8.102;2022-12-29T01:24:15;5.90;54.70
15574;DHT22;7888;46.748;8.102;2022-12-29T01:26:41;5.90;54.60
15574;DHT22;7888;46.748;8.102;2022-12-29T01:29:07;5.90;54.60
15574;DHT22;7888;46.748;8.102;2022-12-29T01:31:33;5.90;54.50
15574;DHT22;7888;46.748;8.102;2022-12-29T01:33:59;5.90;54.50
15574;DHT22;7888;46.748;8.102;2022-12-29T01:36:25;5.90;54.60
15574;DHT22;7888;46.748;8.102;2022-12-29T01:38:52;5.90;54.70
15574;DHT22;7888;46.748;8.102;2022-12-29T01:41:17;6.00;54.70
15574;DHT22;7888;46.748;8.102;2022-12-29T01:43:55;6.00;54.70
15574;DHT22;7888;46.748;8.102;2022-12-29T01:46:30;6.00;54.50
15574;DHT22;7888;46.748;8.102;2022-12-29T01:49:22;6.00;54.50
15574;DHT22;7888;46.748;8.102;2022-12-29T01:51:57;6.00;54.30
15574;DHT22;7888;46.748;8.102;2022-12-29T01:54:32;6.00;54.50
15574;DHT22;7888;46.748;8.102;2022-12-29T01:57:05;5.90;54.50
15574;DHT22;7888;46.748;8.102;2022-12-29T01:59:46;5.90;54.50
15574;DHT22;7888;46.748;8.102;2022-12-29T02:02:19;5.90;54.60
15574;DHT22;7888;46.748;8.102;2022-12-29T02:04:45;5.90;54.60
15574;DHT22;7888;46.748;8.102;2022-12-29T02:07:20;5.80;55.10
15574;DHT22;7888;46.748;8.102;2022-12-29T02:09:49;5.80;54.50
15574;DHT22;7888;46.748;8.102;2022-12-29T02:12:18;5.70;54.60
15574;DHT22;7888;46.748;8.102;2022-12-29T02:14:47;5.70;54.70
15574;DHT22;7888;46.748;8.102;2022-12-29T02:23:30;5.70;54.90
15574;DHT22;7888;46.748;8.102;2022-12-29T02:26:46;5.80;54.90
15574;DHT22;7888;46.748;8.102;2022-12-29T02:35:49;5.80;54.80
15574;DHT22;7888;46.748;8.102;2022-12-29T02:47:04;5.80;55.00
15574;DHT22;7888;46.748;8.102;2022-12-29T02:49:56;5.80;55.00
15574;DHT22;7888;46.748;8.102;2022-12-29T02:52:35;5.80;55.10
15574;DHT22;7888;46.748;8.102;2022-12-29T02:55:04;5.90;55.00
15574;DHT22;7888;46.748;8.102;2022-12-29T02:57:34;5.90;55.20
15574;DHT22;7888;46.748;8.102;2022-12-29T03:00:12;5.90;55.10
15574;DHT22;7888;46.748;8.102;2022-12-29T03:06:02;6.00;55.10
15574;DHT22;7888;46.748;8.102;2022-12-29T03:11:21;6.10;54.90
15574;DHT22;7888;46.748;8.102;2022-12-29T03:14:27;6.20;55.10
15574;DHT22;7888;46.748;8.102;2022-12-29T03:17:29;6.20;54.90
15574;DHT22;7888;46.748;8.102;2022-12-29T03:20:08;6.30;54.90
15574;DHT22;7888;46.748;8.102;2022-12-29T03:22:43;6.30;55.00
15574;DHT22;7888;46.748;8.102;2022-12-29T03:25:22;6.40;55.10
15574;DHT22;7888;46.748;8.102;2022-12-29T03:28:02;6.40;54.90
15574;DHT22;7888;46.748;8.102;2022-12-29T03:30:32;6.50;54.70
15574;DHT22;7888;46.748;8.102;2022-12-29T03:33:04;6.50;54.80
15574;DHT22;7888;46.748;8.102;2022-12-29T03:35:38;6.60;54.70
15574;DHT22;7888;46.748;8.102;2022-12-29T03:39:02;6.60;54.70
15574;DHT22;7888;46.748;8.102;2022-12-29T03:41:20;6.60;54.60
15574;DHT22;7888;46.748;8.102;2022-12-29T03:43:49;6.70;54.80
15574;DHT22;7888;46.748;8.102;2022-12-29T03:46:15;6.70;54.80
15574;DHT22;7888;46.748;8.102;2022-12-29T03:48:41;6.70;54.90
15574;DHT22;7888;46.748;8.102;2022-12-29T03:51:06;6.70;54.90
15574;DHT22;7888;46.748;8.102;2022-12-29T03:53:32;6.70;54.90
15574;DHT22;7888;46.748;8.102;2022-12-29T03:55:58;6.70;54.90
15574;DHT22;7888;46.748;8.102;2022-12-29T03:58:24;6.70;54.80
15574;DHT22;7888;46.748;8.102;2022-12-29T04:00:49;6.70;54.80
15574;DHT22;7888;46.748;8.102;2022-12-29T04:03:15;6.80;54.90
15574;DHT22;7888;46.748;8.102;2022-12-29T04:05:41;6.70;54.70
15574;DHT22;7888;46.748;8.102;2022-12-29T04:08:07;6.70;54.70
15574;DHT22;7888;46.748;8.102;2022-12-29T04:10:33;6.70;54.80
15574;DHT22;7888;46.748;8.102;2022-12-29T04:12:58;6.70;54.80
15574;DHT22;7888;46.748;8.102;2022-12-29T04:15:24;6.70;54.90
15574;DHT22;7888;46.748;8.102;2022-12-29T04:17:51;6.60;55.00
15574;DHT22;7888;46.748;8.102;2022-12-29T04:20:17;6.70;55.10
15574;DHT22;7888;46.748;8.102;2022-12-29T04:23:03;6.60;55.10
15574;DHT22;7888;46.748;8.102;2022-12-29T04:25:30;6.60;55.10
15574;DHT22;7888;46.748;8.102;2022-12-29T04:27:57;6.60;55.10
15574;DHT22;7888;46.748;8.102;2022-12-29T04:30:23;6.70;55.20
15574;DHT22;7888;46.748;8.102;2022-12-29T04:32:49;6.70;55.20
15574;DHT22;7888;46.748;8.102;2022-12-29T04:35:15;6.70;55.00
15574;DHT22;7888;46.748;8.102;2022-12-29T04:37:41;6.70;55.00
15574;DHT22;7888;46.748;8.102;2022-12-29T04:40:07;6.70;55.00
15574;DHT22;7888;46.748;8.102;2022-12-29T04:42:33;6.70;55.00
15574;DHT22;7888;46.748;8.102;2022-12-29T04:44:59;6.70;55.00
15574;DHT22;7888;46.748;8.102;2022-12-29T04:47:25;6.70;55.10
15574;DHT22;7888;46.748;8.102;2022-12-29T04:49:51;6.70;55.10
15574;DHT22;7888;46.748;8.102;2022-12-29T04:52:16;6.70;55.00
15574;DHT22;7888;46.748;8.102;2022-12-29T04:54:42;6.80;55.00
15574;DHT22;7888;46.748;8.102;2022-12-29T04:57:08;6.80;55.10
15574;DHT22;7888;46.748;8.102;2022-12-29T04:59:34;6.80;55.00
15574;DHT22;7888;46.748;8.102;2022-12-29T05:02:00;6.80;55.00
15574;DHT22;7888;46.748;8.102;2022-12-29T05:04:25;6.80;54.90
15574;DHT22;7888;46.748;8.102;2022-12-29T05:06:51;6.90;55.00
15574;DHT22;7888;46.748;8.102;2022-12-29T05:09:17;6.90;54.90
15574;DHT22;7888;46.748;8.102;2022-12-29T05:11:43;6.90;54.90
15574;DHT22;7888;46.748;8.102;2022-12-29T05:14:08;6.90;54.90
15574;DHT22;7888;46.748;8.102;2022-12-29T05:16:34;6.90;54.90
15574;DHT22;7888;46.748;8.102;2022-12-29T05:19:00;6.90;54.90
15574;DHT22;7888;46.748;8.102;2022-12-29T05:21:26;6.90;54.90
15574;DHT22;7888;46.748;8.102;2022-12-29T05:23:52;6.90;54.90
15574;DHT22;7888;46.748;8.102;2022-12-29T05:26:17;6.90;54.90
15574;DHT22;7888;46.748;8.102;2022-12-29T05:28:43;6.90;54.90
15574;DHT22;7888;46.748;8.102;2022-12-29T05:31:09;6.90;54.70
15574;DHT22;7888;46.748;8.102;2022-12-29T05:33:35;6.90;54.60
15574;DHT22;7888;46.748;8.102;2022-12-29T05:36:05;6.90;54.70
15574;DHT22;7888;46.748;8.102;2022-12-29T05:38:32;6.90;54.70
15574;DHT22;7888;46.748;8.102;2022-12-29T05:40:58;7.00;54.70
15574;DHT22;7888;46.748;8.102;2022-12-29T05:43:24;7.00;54.70
15574;DHT22;7888;46.748;8.102;2022-12-29T05:45:50;7.00;54.60
15574;DHT22;7888;46.748;8.102;2022-12-29T05:48:17;7.00;54.60
15574;DHT22;7888;46.748;8.102;2022-12-29T05:50:47;7.10;54.60
15574;DHT22;7888;46.748;8.102;2022-12-29T05:53:14;7.10;54.50
15574;DHT22;7888;46.748;8.102;2022-12-29T05:55:40;7.10;54.60
15574;DHT22;7888;46.748;8.102;2022-12-29T05:58:06;7.10;54.50
15574;DHT22;7888;46.748;8.102;2022-12-29T06:00:32;7.10;54.50
15574;DHT22;7888;46.748;8.102;2022-12-29T06:02:58;7.10;54.40
15574;DHT22;7888;46.748;8.102;2022-12-29T06:05:23;7.10;54.40
15574;DHT22;7888;46.748;8.102;2022-12-29T06:07:49;7.10;54.50
15574;DHT22;7888;46.748;8.102;2022-12-29T06:10:15;7.20;54.50
15574;DHT22;7888;46.748;8.102;2022-12-29T06:12:41;7.20;54.40
15574;DHT22;7888;46.748;8.102;2022-12-29T06:15:07;7.20;54.40
15574;DHT22;7888;46.748;8.102;2022-12-29T06:17:33;7.20;54.40
15574;DHT22;7888;46.748;8.102;2022-12-29T06:19:59;7.10;54.30
15574;DHT22;7888;46.748;8.102;2022-12-29T06:22:25;7.10;54.30
15574;DHT22;7888;46.748;8.102;2022-12-29T06:24:50;7.10;54.20
15574;DHT22;7888;46.748;8.102;2022-12-29T06:27:16;7.10;54.20
15574;DHT22;7888;46.748;8.102;2022-12-29T06:29:42;7.10;54.20
15574;DHT22;7888;46.748;8.102;2022-12-29T06:32:08;7.10;54.30
15574;DHT22;7888;46.748;8.102;2022-12-29T06:34:34;7.10;54.30
15574;DHT22;7888;46.748;8.102;2022-12-29T06:37:00;7.10;54.20
15574;DHT22;7888;46.748;8.102;2022-12-29T06:39:26;7.10;54.10
15574;DHT22;7888;46.748;8.102;2022-12-29T06:41:53;7.10;54.10
15574;DHT22;7888;46.748;8.102;2022-12-29T06:44:22;7.10;54.10
15574;DHT22;7888;46.748;8.102;2022-12-29T06:46:49;7.10;54.10
15574;DHT22;7888;46.748;8.102;2022-12-29T06:49:15;7.10;54.10
15574;DHT22;7888;46.748;8.102;2022-12-29T06:51:41;7.10;54.10
15574;DHT22;7888;46.748;8.102;2022-12-29T06:54:07;7.10;54.10
15574;DHT22;7888;46.748;8.102;2022-12-29T06:56:33;7.10;54.10
15574;DHT22;7888;46.748;8.102;2022-12-29T06:58:58;7.10;54.10
15574;DHT22;7888;46.748;8.102;2022-12-29T07:01:27;7.10;54.10
15574;DHT22;7888;46.748;8.102;2022-12-29T07:03:53;7.10;54.10
15574;DHT22;7888;46.748;8.102;2022-12-29T07:06:18;7.10;54.00
15574;DHT22;7888;46.748;8.102;2022-12-29T07:08:44;7.10;53.90
15574;DHT22;7888;46.748;8.102;2022-12-29T07:11:10;7.10;53.90
15574;DHT22;7888;46.748;8.102;2022-12-29T07:13:36;7.10;53.90
15574;DHT22;7888;46.748;8.102;2022-12-29T07:16:09;7.10;53.90
15574;DHT22;7888;46.748;8.102;2022-12-29T07:18:36;7.10;53.90
15574;DHT22;7888;46.748;8.102;2022-12-29T07:21:02;7.10;54.70
15574;DHT22;7888;46.748;8.102;2022-12-29T07:23:28;7.10;54.10
15574;DHT22;7888;46.748;8.102;2022-12-29T07:26:01;7.10;54.10
15574;DHT22;7888;46.748;8.102;2022-12-29T07:28:28;7.10;54.00
15574;DHT22;7888;46.748;8.102;2022-12-29T07:30:54;7.10;54.10
15574;DHT22;7888;46.748;8.102;2022-12-29T07:33:20;7.10;54.10
15574;DHT22;7888;46.748;8.102;2022-12-29T07:35:47;7.10;54.40
15574;DHT22;7888;46.748;8.102;2022-12-29T07:38:13;7.10;54.70
15574;DHT22;7888;46.748;8.102;2022-12-29T07:40:38;7.10;54.60
15574;DHT22;7888;46.748;8.102;2022-12-29T07:43:04;7.10;54.40
15574;DHT22;7888;46.748;8.102;2022-12-29T07:45:30;7.20;54.40
15574;DHT22;7888;46.748;8.102;2022-12-29T07:47:56;7.20;54.30
15574;DHT22;7888;46.748;8.102;2022-12-29T07:50:22;7.20;54.20
15574;DHT22;7888;46.748;8.102;2022-12-29T07:52:47;7.20;54.20
15574;DHT22;7888;46.748;8.102;2022-12-29T07:55:14;7.20;54.20
15574;DHT22;7888;46.748;8.102;2022-12-29T07:57:41;7.20;54.20
15574;DHT22;7888;46.748;8.102;2022-12-29T08:00:08;7.20;54.20
15574;DHT22;7888;46.748;8.102;2022-12-29T08:02:35;7.20;54.30
15574;DHT22;7888;46.748;8.102;2022-12-29T08:05:01;7.20;54.40
15574;DHT22;7888;46.748;8.102;2022-12-29T08:07:28;7.20;54.50
15574;DHT22;7888;46.748;8.102;2022-12-29T08:09:53;7.20;54.50
15574;DHT22;7888;46.748;8.102;2022-12-29T08:12:19;7.20;54.60
15574;DHT22;7888;46.748;8.102;2022-12-29T08:14:45;7.20;54.70
15574;DHT22;7888;46.748;8.102;2022-12-29T08:17:11;7.20;54.60
15574;DHT22;7888;46.748;8.102;2022-12-29T08:19:37;7.20;54.50
15574;DHT22;7888;46.748;8.102;2022-12-29T08:22:03;7.20;54.50
15574;DHT22;7888;46.748;8.102;2022-12-29T08:24:29;7.30;54.50
15574;DHT22;7888;46.748;8.102;2022-12-29T08:26:55;7.30;54.50
15574;DHT22;7888;46.748;8.102;2022-12-29T08:29:21;7.30;54.50
15574;DHT22;7888;46.748;8.102;2022-12-29T08:31:47;7.30;54.50
15574;DHT22;7888;46.748;8.102;2022-12-29T08:34:13;7.40;54.40
15574;DHT22;7888;46.748;8.102;2022-12-29T08:36:39;7.40;54.20
15574;DHT22;7888;46.748;8.102;2022-12-29T08:39:05;7.40;54.10
15574;DHT22;7888;46.748;8.102;2022-12-29T08:41:31;7.50;54.20
15574;DHT22;7888;46.748;8.102;2022-12-29T08:43:57;7.50;54.20
15574;DHT22;7888;46.748;8.102;2022-12-29T08:46:22;7.50;54.20
15574;DHT22;7888;46.748;8.102;2022-12-29T08:48:48;7.60;54.30
15574;DHT22;7888;46.748;8.102;2022-12-29T08:51:14;7.60;54.30
15574;DHT22;7888;46.748;8.102;2022-12-29T08:53:40;7.60;54.30
15574;DHT22;7888;46.748;8.102;2022-12-29T08:56:08;7.70;54.20
15574;DHT22;7888;46.748;8.102;2022-12-29T08:58:35;7.70;54.10
15574;DHT22;7888;46.748;8.102;2022-12-29T09:01:01;7.70;54.10
15574;DHT22;7888;46.748;8.102;2022-12-29T09:03:27;7.70;54.00
15574;DHT22;7888;46.748;8.102;2022-12-29T09:05:54;7.80;54.00
15574;DHT22;7888;46.748;8.102;2022-12-29T09:08:21;7.80;53.90
15574;DHT22;7888;46.748;8.102;2022-12-29T09:10:48;7.80;54.00
15574;DHT22;7888;46.748;8.102;2022-12-29T09:13:15;7.90;54.20
15574;DHT22;7888;46.748;8.102;2022-12-29T09:15:41;7.90;54.30
15574;DHT22;7888;46.748;8.102;2022-12-29T09:18:08;7.90;54.30
15574;DHT22;7888;46.748;8.102;2022-12-29T09:20:35;8.00;54.20
15574;DHT22;7888;46.748;8.102;2022-12-29T09:23:02;8.00;54.30
15574;DHT22;7888;46.748;8.102;2022-12-29T09:25:28;8.10;54.30
15574;DHT22;7888;46.748;8.102;2022-12-29T09:27:55;8.20;54.10
15574;DHT22;7888;46.748;8.102;2022-12-29T09:30:22;8.20;54.00
15574;DHT22;7888;46.748;8.102;2022-12-29T09:32:49;8.30;53.90
15574;DHT22;7888;46.748;8.102;2022-12-29T09:35:15;8.30;54.00
15574;DHT22;7888;46.748;8.102;2022-12-29T09:37:42;8.40;54.00
15574;DHT22;7888;46.748;8.102;2022-12-29T09:40:29;8.50;54.10
15574;DHT22;7888;46.748;8.102;2022-12-29T09:43:24;8.50;53.60
15574;DHT22;7888;46.748;8.102;2022-12-29T09:46:21;8.60;53.70
15574;DHT22;7888;46.748;8.102;2022-12-29T09:52:14;8.80;53.90
15574;DHT22;7888;46.748;8.102;2022-12-29T09:55:03;8.80;53.90
15574;DHT22;7888;46.748;8.102;2022-12-29T09:57:46;8.90;53.60
15574;DHT22;7888;46.748;8.102;2022-12-29T10:00:20;9.00;54.10
15574;DHT22;7888;46.748;8.102;2022-12-29T10:02:58;9.10;54.70
15574;DHT22;7888;46.748;8.102;2022-12-29T10:05:38;9.30;54.40
15574;DHT22;7888;46.748;8.102;2022-12-29T10:08:44;9.50;54.50
15574;DHT22;7888;46.748;8.102;2022-12-29T10:20:28;10.30;53.30
15574;DHT22;7888;46.748;8.102;2022-12-29T10:23:26;10.40;53.60
15574;DHT22;7888;46.748;8.102;2022-12-29T10:25:57;10.50;52.90
15574;DHT22;7888;46.748;8.102;2022-12-29T10:28:37;10.50;53.00
15574;DHT22;7888;46.748;8.102;2022-12-29T10:31:21;10.60;52.80
15574;DHT22;7888;46.748;8.102;2022-12-29T10:33:51;10.70;52.90
15574;DHT22;7888;46.748;8.102;2022-12-29T10:36:44;10.70;52.90
15574;DHT22;7888;46.748;8.102;2022-12-29T10:41:53;10.90;52.90
15574;DHT22;7888;46.748;8.102;2022-12-29T10:44:27;10.90;52.50
15574;DHT22;7888;46.748;8.102;2022-12-29T10:46:59;11.00;52.70
15574;DHT22;7888;46.748;8.102;2022-12-29T10:49:31;11.00;52.70
15574;DHT22;7888;46.748;8.102;2022-12-29T10:52:02;11.10;52.80
15574;DHT22;7888;46.748;8.102;2022-12-29T10:54:33;11.10;52.60
15574;DHT22;7888;46.748;8.102;2022-12-29T10:57:09;11.20;52.30
15574;DHT22;7888;46.748;8.102;2022-12-29T10:59:45;11.20;52.20
15574;DHT22;7888;46.748;8.102;2022-12-29T11:07:41;11.30;51.40
15574;DHT22;7888;46.748;8.102;2022-12-29T11:13:01;11.40;51.60
15574;DHT22;7888;46.748;8.102;2022-12-29T11:18:33;11.50;51.20
15574;DHT22;7888;46.748;8.102;2022-12-29T11:21:05;11.50;50.80
15574;DHT22;7888;46.748;8.102;2022-12-29T11:23:40;11.40;51.20
15574;DHT22;7888;46.748;8.102;2022-12-29T11:28:40;11.50;50.90
15574;DHT22;7888;46.748;8.102;2022-12-29T11:31:09;11.50;50.50
15574;DHT22;7888;46.748;8.102;2022-12-29T11:33:37;11.50;50.70
15574;DHT22;7888;46.748;8.102;2022-12-29T11:36:17;11.50;50.40
15574;DHT22;7888;46.748;8.102;2022-12-29T11:38:52;11.50;50.80
15574;DHT22;7888;46.748;8.102;2022-12-29T11:41:29;11.50;51.00
15574;DHT22;7888;46.748;8.102;2022-12-29T11:44:02;11.50;51.10
15574;DHT22;7888;46.748;8.102;2022-12-29T11:46:33;11.60;51.40
15574;DHT22;7888;46.748;8.102;2022-12-29T11:49:02;11.60;51.30
15574;DHT22;7888;46.748;8.102;2022-12-29T11:51:35;11.60;51.20
15574;DHT22;7888;46.748;8.102;2022-12-29T11:54:25;11.70;51.30
15574;DHT22;7888;46.748;8.102;2022-12-29T11:56:58;11.70;51.00
15574;DHT22;7888;46.748;8.102;2022-12-29T11:59:42;11.70;51.30
15574;DHT22;7888;46.748;8.102;2022-12-29T12:02:36;11.80;51.40
15574;DHT22;7888;46.748;8.102;2022-12-29T12:14:05;12.00;51.70
15574;DHT22;7888;46.748;8.102;2022-12-29T12:16:41;12.00;50.60
15574;DHT22;7888;46.748;8.102;2022-12-29T12:22:36;12.20;50.80
15574;DHT22;7888;46.748;8.102;2022-12-29T12:25:24;12.20;50.80
15574;DHT22;7888;46.748;8.102;2022-12-29T12:34:36;12.30;50.50
15574;DHT22;7888;46.748;8.102;2022-12-29T12:37:14;12.40;50.70
15574;DHT22;7888;46.748;8.102;2022-12-29T12:55:16;12.70;50.00
15574;DHT22;7888;46.748;8.102;2022-12-29T12:58:10;12.70;50.10
15574;DHT22;7888;46.748;8.102;2022-12-29T13:03:15;12.70;49.80
15574;DHT22;7888;46.748;8.102;2022-12-29T13:06:10;12.60;50.10
15574;DHT22;7888;46.748;8.102;2022-12-29T13:12:10;12.60;49.90
15574;DHT22;7888;46.748;8.102;2022-12-29T13:20:39;12.50;50.00
15574;DHT22;7888;46.748;8.102;2022-12-29T13:37:54;12.50;50.00
15574;DHT22;7888;46.748;8.102;2022-12-29T13:40:30;12.50;50.20
15574;DHT22;7888;46.748;8.102;2022-12-29T13:43:01;12.60;50.00
15574;DHT22;7888;46.748;8.102;2022-12-29T13:45:30;12.60;50.00
15574;DHT22;7888;46.748;8.102;2022-12-29T13:48:19;12.60;50.00
15574;DHT22;7888;46.748;8.102;2022-12-29T13:50:53;12.60;49.70
15574;DHT22;7888;46.748;8.102;2022-12-29T13:56:07;12.70;48.90
15574;DHT22;7888;46.748;8.102;2022-12-29T13:58:56;12.70;49.30
15574;DHT22;7888;46.748;8.102;2022-12-29T14:04:59;12.80;49.00
15574;DHT22;7888;46.748;8.102;2022-12-29T14:07:25;12.80;49.60
15574;DHT22;7888;46.748;8.102;2022-12-29T14:09:54;12.80;49.60
15574;DHT22;7888;46.748;8.102;2022-12-29T14:12:42;12.70;49.40
15574;DHT22;7888;46.748;8.102;2022-12-29T14:17:35;12.80;49.30
15574;DHT22;7888;46.748;8.102;2022-12-29T14:20:03;12.80;49.40
15574;DHT22;7888;46.748;8.102;2022-12-29T14:22:33;12.80;49.00
15574;DHT22;7888;46.748;8.102;2022-12-29T14:24:59;12.70;49.00
15574;DHT22;7888;46.748;8.102;2022-12-29T14:27:44;12.70;48.90
15574;DHT22;7888;46.748;8.102;2022-12-29T14:30:46;12.70;48.10
15574;DHT22;7888;46.748;8.102;2022-12-29T14:33:15;12.60;48.20
15574;DHT22;7888;46.748;8.102;2022-12-29T14:35:44;12.60;48.70
15574;DHT22;7888;46.748;8.102;2022-12-29T14:38:44;12.60;48.90
15574;DHT22;7888;46.748;8.102;2022-12-29T14:44:00;12.50;48.50
15574;DHT22;7888;46.748;8.102;2022-12-29T14:47:00;12.60;49.10
15574;DHT22;7888;46.748;8.102;2022-12-29T14:49:39;12.50;48.40
15574;DHT22;7888;46.748;8.102;2022-12-29T14:54:53;12.50;48.30
15574;DHT22;7888;46.748;8.102;2022-12-29T14:57:40;12.50;48.60
15574;DHT22;7888;46.748;8.102;2022-12-29T15:00:16;12.60;48.60
15574;DHT22;7888;46.748;8.102;2022-12-29T15:03:38;12.60;48.90
15574;DHT22;7888;46.748;8.102;2022-12-29T15:05:52;12.50;49.30
15574;DHT22;7888;46.748;8.102;2022-12-29T15:08:27;12.50;49.20
15574;DHT22;7888;46.748;8.102;2022-12-29T15:11:04;12.50;49.20
15574;DHT22;7888;46.748;8.102;2022-12-29T15:13:40;12.50;49.40
15574;DHT22;7888;46.748;8.102;2022-12-29T15:16:43;12.50;49.50
15574;DHT22;7888;46.748;8.102;2022-12-29T15:19:22;12.50;48.30
15574;DHT22;7888;46.748;8.102;2022-12-29T15:21:49;12.50;48.50
15574;DHT22;7888;46.748;8.102;2022-12-29T15:24:15;12.40;48.80
15574;DHT22;7888;46.748;8.102;2022-12-29T15:26:48;12.40;48.80
15574;DHT22;7888;46.748;8.102;2022-12-29T15:29:30;12.40;48.70
15574;DHT22;7888;46.748;8.102;2022-12-29T15:34:47;12.40;48.80
15574;DHT22;7888;46.748;8.102;2022-12-29T15:37:23;12.40;48.90
15574;DHT22;7888;46.748;8.102;2022-12-29T15:39:56;12.30;48.80
15574;DHT22;7888;46.748;8.102;2022-12-29T15:42:34;12.30;49.80
15574;DHT22;7888;46.748;8.102;2022-12-29T15:45:17;12.20;49.40
15574;DHT22;7888;46.748;8.102;2022-12-29T15:47:45;12.20;49.30
15574;DHT22;7888;46.748;8.102;2022-12-29T15:50:30;12.20;48.90
15574;DHT22;7888;46.748;8.102;2022-12-29T15:52:58;12.10;48.40
15574;DHT22;7888;46.748;8.102;2022-12-29T15:55:36;12.10;48.40
15574;DHT22;7888;46.748;8.102;2022-12-29T15:58:22;12.10;48.00
15574;DHT22;7888;46.748;8.102;2022-12-29T16:00:58;12.00;48.50
15574;DHT22;7888;46.748;8.102;2022-12-29T16:03:29;12.00;49.00
15574;DHT22;7888;46.748;8.102;2022-12-29T16:06:24;12.00;48.90
15574;DHT22;7888;46.748;8.102;2022-12-29T16:09:10;12.00;48.20
15574;DHT22;7888;46.748;8.102;2022-12-29T16:11:45;12.00;48.00
15574;DHT22;7888;46.748;8.102;2022-12-29T16:14:24;12.00;48.40
15574;DHT22;7888;46.748;8.102;2022-12-29T16:17:02;12.00;48.20
15574;DHT22;7888;46.748;8.102;2022-12-29T16:19:39;12.00;48.30
15574;DHT22;7888;46.748;8.102;2022-12-29T16:22:28;12.00;47.90
15574;DHT22;7888;46.748;8.102;2022-12-29T16:24:59;11.90;47.40
15574;DHT22;7888;46.748;8.102;2022-12-29T16:27:36;12.00;47.90
15574;DHT22;7888;46.748;8.102;2022-12-29T16:30:06;12.00;48.20
15574;DHT22;7888;46.748;8.102;2022-12-29T16:32:50;12.00;48.50
15574;DHT22;7888;46.748;8.102;2022-12-29T16:40:51;11.90;48.70
15574;DHT22;7888;46.748;8.102;2022-12-29T16:43:27;11.80;49.70
15574;DHT22;7888;46.748;8.102;2022-12-29T16:51:13;11.70;49.30
15574;DHT22;7888;46.748;8.102;2022-12-29T16:53:42;11.60;49.10
15574;DHT22;7888;46.748;8.102;2022-12-29T16:56:23;11.60;50.00
15574;DHT22;7888;46.748;8.102;2022-12-29T16:59:23;11.60;49.70
15574;DHT22;7888;46.748;8.102;2022-12-29T17:02:19;11.50;49.60
15574;DHT22;7888;46.748;8.102;2022-12-29T17:04:47;11.50;49.60
15574;DHT22;7888;46.748;8.102;2022-12-29T17:07:23;11.50;49.70
15574;DHT22;7888;46.748;8.102;2022-12-29T17:09:51;11.40;49.50
15574;DHT22;7888;46.748;8.102;2022-12-29T17:12:29;11.40;49.70
15574;DHT22;7888;46.748;8.102;2022-12-29T17:15:02;11.30;49.50
15574;DHT22;7888;46.748;8.102;2022-12-29T17:17:45;11.30;49.50
15574;DHT22;7888;46.748;8.102;2022-12-29T17:20:24;11.30;49.70
15574;DHT22;7888;46.748;8.102;2022-12-29T17:22:52;11.30;49.80
15574;DHT22;7888;46.748;8.102;2022-12-29T17:25:21;11.30;49.90
15574;DHT22;7888;46.748;8.102;2022-12-29T17:27:59;11.20;49.90
15574;DHT22;7888;46.748;8.102;2022-12-29T17:30:28;11.20;50.00
15574;DHT22;7888;46.748;8.102;2022-12-29T17:33:04;11.20;50.00
15574;DHT22;7888;46.748;8.102;2022-12-29T17:35:33;11.20;50.00
15574;DHT22;7888;46.748;8.102;2022-12-29T17:37:59;11.20;50.10
15574;DHT22;7888;46.748;8.102;2022-12-29T17:40:30;11.20;50.10
15574;DHT22;7888;46.748;8.102;2022-12-29T17:42:58;11.10;50.20
15574;DHT22;7888;46.748;8.102;2022-12-29T17:45:31;11.10;50.30
15574;DHT22;7888;46.748;8.102;2022-12-29T17:47:58;11.10;50.10
15574;DHT22;7888;46.748;8.102;2022-12-29T17:50:27;11.10;50.30
15574;DHT22;7888;46.748;8.102;2022-12-29T17:53:04;11.10;50.20
15574;DHT22;7888;46.748;8.102;2022-12-29T17:55:35;11.10;50.20
15574;DHT22;7888;46.748;8.102;2022-12-29T17:58:01;11.10;50.30
15574;DHT22;7888;46.748;8.102;2022-12-29T18:00:35;11.10;50.50
15574;DHT22;7888;46.748;8.102;2022-12-29T18:03:00;11.10;50.70
15574;DHT22;7888;46.748;8.102;2022-12-29T18:05:29;11.10;50.70
15574;DHT22;7888;46.748;8.102;2022-12-29T18:07:57;11.10;50.70
15574;DHT22;7888;46.748;8.102;2022-12-29T18:10:25;11.10;50.70
15574;DHT22;7888;46.748;8.102;2022-12-29T18:12:54;11.10;50.70
15574;DHT22;7888;46.748;8.102;2022-12-29T18:15:31;11.10;50.70
15574;DHT22;7888;46.748;8.102;2022-12-29T18:18:10;11.10;50.70
15574;DHT22;7888;46.748;8.102;2022-12-29T18:20:39;11.10;50.70
15574;DHT22;7888;46.748;8.102;2022-12-29T18:23:49;11.10;50.70
15574;DHT22;7888;46.748;8.102;2022-12-29T18:26:21;11.00;50.80
15574;DHT22;7888;46.748;8.102;2022-12-29T18:28:49;11.10;50.90
15574;DHT22;7888;46.748;8.102;2022-12-29T18:31:20;11.10;50.80
15574;DHT22;7888;46.748;8.102;2022-12-29T18:33:49;11.10;50.70
15574;DHT22;7888;46.748;8.102;2022-12-29T18:36:17;11.10;51.00
15574;DHT22;7888;46.748;8.102;2022-12-29T18:38:43;11.10;51.10
15574;DHT22;7888;46.748;8.102;2022-12-29T18:41:19;11.10;51.00
15574;DHT22;7888;46.748;8.102;2022-12-29T18:43:47;11.10;51.00
15574;DHT22;7888;46.748;8.102;2022-12-29T18:46:13;11.10;50.80
15574;DHT22;7888;46.748;8.102;2022-12-29T18:48:39;11.10;50.70
15574;DHT22;7888;46.748;8.102;2022-12-29T18:51:05;11.10;50.80
15574;DHT22;7888;46.748;8.102;2022-12-29T18:53:34;11.10;50.90